createdAt,value
2022-08-24T00:01:23.793Z,101015.25
2022-08-24T00:03:55.159Z,101013.63
2022-08-24T00:06:23.227Z,101012.03
2022-08-24T00:08:51.978Z,101014.88
2022-08-24T00:11:19.295Z,101024.69
2022-08-24T00:13:46.892Z,101028.81
2022-08-24T00:16:14.633Z,101025.97
2022-08-24T00:18:41.918Z,101027.22
2022-08-24T00:21:08.627Z,101033.34
2022-08-24T00:23:36.401Z,101030.50
2022-08-24T00:26:04.933Z,101016.69
2022-08-24T00:28:32.103Z,101018.72
2022-08-24T00:30:58.654Z,101016.75
2022-08-24T00:33:25.586Z,101014.38
2022-08-24T00:35:52.399Z,101016.84
2022-08-24T00:38:19.053Z,101015.69
2022-08-24T00:40:47.691Z,101021.47
2022-08-24T00:43:17.615Z,101026.84
2022-08-24T00:45:50.421Z,101025.31
2022-08-24T00:48:22.237Z,101023.34
2022-08-24T00:51:06.720Z,101023.88
2022-08-24T00:53:40.081Z,101020.69
2022-08-24T00:56:19.284Z,101022.00
2022-08-24T00:58:59.063Z,101020.00
2022-08-24T01:01:28.361Z,101017.69
2022-08-24T01:03:57.328Z,101022.66
2022-08-24T01:06:24.723Z,101016.69
2022-08-24T01:08:56.677Z,101018.81
2022-08-24T01:11:26.474Z,101029.13
2022-08-24T01:13:54.743Z,101023.97
2022-08-24T01:16:40.553Z,101026.06
2022-08-24T01:19:17.358Z,101038.44
2022-08-24T01:22:11.575Z,101023.09
2022-08-24T01:24:38.677Z,101021.47
2022-08-24T01:27:09.637Z,101018.34
2022-08-24T01:29:37.852Z,101018.81
2022-08-24T01:32:05.064Z,101021.72
2022-08-24T01:34:31.611Z,101019.69
2022-08-24T01:36:59.519Z,101026.31
2022-08-24T01:39:28.655Z,101026.38
2022-08-24T01:41:55.993Z,101023.59
2022-08-24T01:44:24.327Z,101028.53
2022-08-24T01:46:56.183Z,101030.31
2022-08-24T01:49:27.859Z,101036.06
2022-08-24T01:51:54.825Z,101030.47
2022-08-24T01:54:21.578Z,101035.41
2022-08-24T01:56:48.345Z,101031.81
2022-08-24T01:59:15.379Z,101035.19
2022-08-24T02:01:46.551Z,101036.09
2022-08-24T02:04:13.115Z,101033.34
2022-08-24T02:06:44.986Z,101030.56
2022-08-24T02:09:11.933Z,101038.00
2022-08-24T02:11:39.733Z,101042.09
2022-08-24T02:14:06.859Z,101040.91
2022-08-24T02:16:33.825Z,101038.16
2022-08-24T02:19:00.361Z,101036.97
2022-08-24T02:21:26.886Z,101037.03
2022-08-24T02:23:53.494Z,101028.56
2022-08-24T02:26:20.124Z,101037.16
2022-08-24T02:28:46.596Z,101036.84
2022-08-24T02:31:14.793Z,101041.41
2022-08-24T02:33:41.870Z,101038.19
2022-08-24T02:36:25.330Z,101052.47
2022-08-24T02:38:54.299Z,101057.00
2022-08-24T02:41:21.300Z,101048.06
2022-08-24T02:43:47.889Z,101041.22
2022-08-24T02:46:24.115Z,101042.91
2022-08-24T02:48:59.899Z,101043.31
2022-08-24T02:51:44.116Z,101040.91
2022-08-24T02:54:12.910Z,101047.44
2022-08-24T02:56:39.713Z,101042.59
2022-08-24T02:59:06.330Z,101047.94
2022-08-24T03:01:33.120Z,101045.53
2022-08-24T03:03:59.659Z,101041.50
2022-08-24T03:06:26.227Z,101045.97
2022-08-24T03:08:56.476Z,101054.13
2022-08-24T03:11:27.733Z,101054.16
2022-08-24T03:13:59.180Z,101055.03
2022-08-24T03:16:28.128Z,101052.22
2022-08-24T03:18:54.933Z,101051.03
2022-08-24T03:21:21.540Z,101052.72
2022-08-24T03:23:48.073Z,101058.03
2022-08-24T03:26:15.017Z,101051.97
2022-08-24T03:28:41.910Z,101060.91
2022-08-24T03:31:11.859Z,101043.47
2022-08-24T03:33:38.447Z,101048.00
2022-08-24T03:36:05.153Z,101035.06
2022-08-24T03:38:31.656Z,101040.78
2022-08-24T03:40:58.215Z,101035.94
2022-08-24T03:43:43.091Z,101046.16
2022-08-24T03:46:11.951Z,101037.25
2022-08-24T03:48:40.492Z,101043.34
2022-08-24T03:51:10.787Z,101044.22
2022-08-24T03:53:37.662Z,101037.31
2022-08-24T03:56:10.024Z,101043.44
2022-08-24T03:58:38.637Z,101054.00
2022-08-24T04:01:05.650Z,101044.69
2022-08-24T04:03:36.595Z,101049.53
2022-08-24T04:06:04.159Z,101052.81
2022-08-24T04:08:30.974Z,101055.69
2022-08-24T04:10:57.713Z,101052.09
2022-08-24T04:13:25.115Z,101057.38
2022-08-24T04:15:52.969Z,101052.94
2022-08-24T04:18:20.217Z,101059.06
2022-08-24T04:20:46.809Z,101056.66
2022-08-24T04:23:13.479Z,101054.22
2022-08-24T04:25:45.223Z,101060.78
2022-08-24T04:28:13.916Z,101062.41
2022-08-24T04:30:42.322Z,101059.19
2022-08-24T04:33:12.926Z,101061.25
2022-08-24T04:35:42.828Z,101061.25
2022-08-24T04:38:09.561Z,101052.75
2022-08-24T04:40:39.596Z,101061.28
2022-08-24T04:43:06.797Z,101068.22
2022-08-24T04:45:34.497Z,101062.53
2022-08-24T04:48:01.078Z,101062.13
2022-08-24T04:50:27.777Z,101069.03
2022-08-24T04:52:54.266Z,101072.31
2022-08-24T04:55:20.817Z,101073.13
2022-08-24T04:57:47.328Z,101071.50
2022-08-24T05:00:14.131Z,101070.72
2022-08-24T05:02:44.668Z,101071.50
2022-08-24T05:05:13.511Z,101071.50
2022-08-24T05:07:40.157Z,101070.66
2022-08-24T05:10:08.833Z,101072.28
2022-08-24T05:12:35.513Z,101078.34
2022-08-24T05:15:02.095Z,101078.31
2022-08-24T05:17:28.857Z,101083.09
2022-08-24T05:19:55.382Z,101084.19
2022-08-24T05:22:21.894Z,101086.09
2022-08-24T05:24:48.393Z,101096.06
2022-08-24T05:27:15.846Z,101095.44
2022-08-24T05:29:46.017Z,101094.03
2022-08-24T05:32:12.560Z,101094.28
2022-08-24T05:34:39.350Z,101099.00
2022-08-24T05:37:05.850Z,101097.31
2022-08-24T05:39:32.833Z,101099.66
2022-08-24T05:42:00.948Z,101103.25
2022-08-24T05:44:31.200Z,101107.63
2022-08-24T05:46:58.750Z,101096.19
2022-08-24T05:49:26.206Z,101103.09
2022-08-24T05:51:53.361Z,101093.66
2022-08-24T05:54:20.233Z,101097.72
2022-08-24T05:56:46.753Z,101102.53
2022-08-24T05:59:14.541Z,101102.47
2022-08-24T06:01:45.282Z,101103.66
2022-08-24T06:04:12.869Z,101102.72
2022-08-24T06:06:39.872Z,101109.53
2022-08-24T06:09:06.914Z,101109.91
2022-08-24T06:11:38.384Z,101114.66
2022-08-24T06:14:08.111Z,101114.09
2022-08-24T06:16:36.591Z,101124.09
2022-08-24T06:19:03.897Z,101119.44
2022-08-24T06:21:31.783Z,101122.47
2022-08-24T06:23:59.483Z,101123.97
2022-08-24T06:26:50.336Z,101121.00
2022-08-24T06:29:18.310Z,101124.88
2022-08-24T06:31:46.676Z,101121.44
2022-08-24T06:34:16.148Z,101126.56
2022-08-24T06:36:43.151Z,101121.91
2022-08-24T06:39:11.206Z,101121.31
2022-08-24T06:41:39.088Z,101123.47
2022-08-24T06:44:06.708Z,101129.34
2022-08-24T06:46:33.497Z,101137.59
2022-08-24T06:49:00.883Z,101134.47
2022-08-24T06:51:27.429Z,101136.66
2022-08-24T06:53:55.972Z,101137.63
2022-08-24T06:56:22.533Z,101137.03
2022-08-24T06:58:49.190Z,101145.78
2022-08-24T07:01:18.853Z,101135.41
2022-08-24T07:03:45.651Z,101133.53
2022-08-24T07:06:14.160Z,101148.91
2022-08-24T07:08:44.604Z,101144.59
2022-08-24T07:11:14.431Z,101145.56
2022-08-24T07:13:41.892Z,101146.28
2022-08-24T07:16:10.062Z,101147.41
2022-08-24T07:18:37.219Z,101147.28
2022-08-24T07:21:04.621Z,101152.00
2022-08-24T07:23:41.907Z,101158.31
2022-08-24T07:26:21.820Z,101151.97
2022-08-24T07:28:53.737Z,101153.72
2022-08-24T07:31:21.139Z,101156.25
2022-08-24T07:33:48.168Z,101157.94
2022-08-24T07:36:22.085Z,101163.25
2022-08-24T07:38:52.291Z,101168.66
2022-08-24T07:41:40.476Z,101157.63
2022-08-24T07:44:07.199Z,101166.44
2022-08-24T07:46:33.879Z,101165.25
2022-08-24T07:49:11.443Z,101168.25
2022-08-24T07:51:44.867Z,101165.09
2022-08-24T07:54:14.091Z,101166.28
2022-08-24T07:56:42.392Z,101172.25
2022-08-24T07:59:13.079Z,101165.91
2022-08-24T08:01:41.369Z,101170.47
2022-08-24T08:04:09.320Z,101167.13
2022-08-24T08:06:36.754Z,101166.91
2022-08-24T08:09:05.103Z,101166.28
2022-08-24T08:11:32.339Z,101169.16
2022-08-24T08:13:58.830Z,101172.72
2022-08-24T08:16:26.307Z,101178.81
2022-08-24T08:19:09.384Z,101175.25
2022-08-24T08:22:04.865Z,101179.00
2022-08-24T08:24:31.467Z,101179.13
2022-08-24T08:26:58.211Z,101170.41
2022-08-24T08:29:26.066Z,101169.03
2022-08-24T08:31:52.849Z,101169.44
2022-08-24T08:34:19.444Z,101167.75
2022-08-24T08:36:46.378Z,101164.38
2022-08-24T08:39:15.887Z,101173.06
2022-08-24T08:41:42.382Z,101165.09
2022-08-24T08:44:33.302Z,101168.44
2022-08-24T08:47:43.673Z,101166.97
2022-08-24T08:50:40.404Z,101162.34
2022-08-24T08:53:09.967Z,101169.63
2022-08-24T08:55:42.293Z,101169.41
2022-08-24T08:58:27.460Z,101172.66
2022-08-24T09:01:12.318Z,101170.09
2022-08-24T09:04:06.641Z,101173.56
2022-08-24T09:06:51.395Z,101167.44
2022-08-24T09:09:23.905Z,101172.00
2022-08-24T09:11:53.684Z,101172.59
2022-08-24T09:14:22.785Z,101169.56
2022-08-24T09:17:21.848Z,101173.00
2022-08-24T09:20:18.954Z,101163.25
2022-08-24T09:22:48.277Z,101168.91
2022-08-24T09:25:26.931Z,101170.13
2022-08-24T09:28:43.909Z,101173.94
2022-08-24T09:31:37.558Z,101162.00
2022-08-24T09:34:29.046Z,101166.56
2022-08-24T09:37:10.656Z,101166.28
2022-08-24T09:40:02.555Z,101159.13
2022-08-24T09:42:32.495Z,101161.19
2022-08-24T09:45:14.224Z,101162.06
2022-08-24T09:47:59.576Z,101157.00
2022-08-24T09:50:36.630Z,101163.56
2022-08-24T09:53:13.035Z,101157.19
2022-08-24T09:56:07.148Z,101156.28
2022-08-24T09:59:01.343Z,101154.91
2022-08-24T10:01:49.253Z,101154.78
2022-08-24T10:04:18.880Z,101154.56
2022-08-24T10:07:17.639Z,101162.16
2022-08-24T10:10:21.229Z,101153.19
2022-08-24T10:13:12.340Z,101149.03
2022-08-24T10:15:46.107Z,101141.16
2022-08-24T10:18:38.450Z,101147.41
2022-08-24T10:21:29.822Z,101145.31
2022-08-24T10:23:56.475Z,101133.75
2022-08-24T10:26:58.954Z,101138.66
2022-08-24T10:29:31.524Z,101134.78
2022-08-24T10:32:31.884Z,101132.69
2022-08-24T10:35:10.442Z,101133.28
2022-08-24T10:38:33.170Z,101131.38
2022-08-24T10:41:19.189Z,101129.28
2022-08-24T10:44:26.359Z,101132.97
2022-08-24T10:46:58.432Z,101134.69
2022-08-24T10:49:37.394Z,101125.00
2022-08-24T10:52:06.911Z,101125.94
2022-08-24T10:54:35.152Z,101123.94
2022-08-24T10:57:19.766Z,101127.91
2022-08-24T11:00:18.215Z,101124.53
2022-08-24T11:03:04.958Z,101115.19
2022-08-24T11:05:38.878Z,101119.03
2022-08-24T11:08:07.085Z,101116.34
2022-08-24T11:10:38.047Z,101114.75
2022-08-24T11:13:21.163Z,101120.72
2022-08-24T11:15:55.625Z,101113.16
2022-08-24T11:18:23.098Z,101118.25
2022-08-24T11:20:54.824Z,101115.63
2022-08-24T11:23:34.603Z,101110.69
2022-08-24T11:26:07.471Z,101108.59
2022-08-24T11:28:33.934Z,101106.03
2022-08-24T11:31:01.369Z,101102.81
2022-08-24T11:33:35.339Z,101106.53
2022-08-24T11:36:02.826Z,101108.72
2022-08-24T11:38:35.010Z,101104.81
2022-08-24T11:41:24.181Z,101105.13
2022-08-24T11:44:31.768Z,101110.38
2022-08-24T11:46:58.225Z,101103.19
2022-08-24T11:49:48.091Z,101108.25
2022-08-24T11:52:55.937Z,101092.03
2022-08-24T11:55:47.142Z,101092.09
2022-08-24T11:58:41.392Z,101105.06
2022-08-24T12:01:20.092Z,101096.19
2022-08-24T12:04:16.580Z,101103.25
2022-08-24T12:06:52.732Z,101094.06
2022-08-24T12:09:37.565Z,101092.25
2022-08-24T12:12:16.346Z,101091.47
2022-08-24T12:15:07.563Z,101085.91
2022-08-24T12:17:40.757Z,101088.56
2022-08-24T12:20:49.280Z,101081.50
2022-08-24T12:23:31.787Z,101076.34
2022-08-24T12:26:05.606Z,101084.28
2022-08-24T12:28:44.095Z,101078.81
2022-08-24T12:31:43.771Z,101070.13
2022-08-24T12:34:25.399Z,101073.09
2022-08-24T12:37:15.390Z,101068.09
2022-08-24T12:39:50.194Z,101072.88
2022-08-24T12:42:32.928Z,101069.69
2022-08-24T12:45:05.433Z,101063.91
2022-08-24T12:47:50.449Z,101065.72
2022-08-24T12:50:36.711Z,101061.25
2022-08-24T12:53:12.166Z,101070.78
2022-08-24T12:56:09.441Z,101066.31
2022-08-24T12:59:07.615Z,101067.38
2022-08-24T13:01:37.859Z,101070.59
2022-08-24T13:04:19.638Z,101065.81
2022-08-24T13:06:55.311Z,101062.41
2022-08-24T13:09:39.231Z,101067.38
2022-08-24T13:12:30.685Z,101056.13
2022-08-24T13:15:22.132Z,101054.03
2022-08-24T13:17:50.467Z,101048.31
2022-08-24T13:20:49.023Z,101049.91
2022-08-24T13:23:19.535Z,101052.06
2022-08-24T13:25:52.031Z,101050.53
2022-08-24T13:28:21.672Z,101051.34
2022-08-24T13:30:54.293Z,101049.53
2022-08-24T13:33:51.557Z,101050.59
2022-08-24T13:36:41.908Z,101049.63
2022-08-24T13:39:44.246Z,101042.00
2022-08-24T13:42:13.448Z,101033.41
2022-08-24T13:45:12.063Z,101040.78
2022-08-24T13:48:04.294Z,101041.84
2022-08-24T13:50:37.920Z,101032.16
2022-08-24T13:53:10.562Z,101034.03
2022-08-24T13:55:48.573Z,101032.16
2022-08-24T13:58:39.198Z,101025.06
2022-08-24T14:01:32.608Z,101017.50
2022-08-24T14:04:28.818Z,101021.97
2022-08-24T14:07:01.094Z,101025.69
2022-08-24T14:09:41.328Z,101024.91
2022-08-24T14:12:19.678Z,101018.91
2022-08-24T14:15:07.914Z,101025.25
2022-08-24T14:18:11.339Z,101018.16
2022-08-24T14:20:48.793Z,101023.69
2022-08-24T14:23:25.183Z,101021.09
2022-08-24T14:26:11.834Z,101020.41
2022-08-24T14:28:43.666Z,101019.38
2022-08-24T14:31:21.593Z,101016.75
2022-08-24T14:34:16.954Z,101020.44
2022-08-24T14:36:57.389Z,101018.63
2022-08-24T14:39:39.171Z,101015.22
2022-08-24T14:42:17.553Z,101020.19
2022-08-24T14:44:56.089Z,101006.50
2022-08-24T14:47:44.170Z,101007.00
2022-08-24T14:50:24.025Z,101008.59
2022-08-24T14:53:02.187Z,101001.50
2022-08-24T14:55:42.508Z,101003.06
2022-08-24T14:58:29.049Z,101006.50
2022-08-24T15:01:14.626Z,100995.13
2022-08-24T15:04:02.555Z,101000.63
2022-08-24T15:06:53.655Z,100995.63
2022-08-24T15:09:35.464Z,101000.84
2022-08-24T15:12:23.192Z,100996.88
2022-08-24T15:14:55.345Z,100995.31
2022-08-24T15:17:29.031Z,100989.53
2022-08-24T15:20:42.799Z,100992.69
2022-08-24T15:23:31.130Z,100984.50
2022-08-24T15:26:04.750Z,100989.78
2022-08-24T15:28:33.624Z,100985.28
2022-08-24T15:31:06.064Z,100981.34
2022-08-24T15:33:33.671Z,100981.84
2022-08-24T15:36:13.076Z,100973.41
2022-08-24T15:38:40.971Z,100974.44
2022-08-24T15:41:13.389Z,100982.88
2022-08-24T15:43:42.875Z,100977.88
2022-08-24T15:46:10.823Z,100975.75
2022-08-24T15:48:38.129Z,100976.56
2022-08-24T15:51:05.737Z,100978.13
2022-08-24T15:53:36.920Z,100979.44
2022-08-24T15:56:21.532Z,100983.66
2022-08-24T15:58:50.137Z,100982.91
2022-08-24T16:01:35.027Z,100986.59
2022-08-24T16:04:03.779Z,100979.22
2022-08-24T16:06:33.259Z,100983.13
2022-08-24T16:09:05.954Z,100980.75
2022-08-24T16:11:42.026Z,100973.41
2022-08-24T16:14:31.217Z,100973.63
2022-08-24T16:16:59.275Z,100983.38
2022-08-24T16:19:27.567Z,100977.06
2022-08-24T16:21:58.342Z,100968.66
2022-08-24T16:24:30.657Z,100983.09
2022-08-24T16:27:01.707Z,100973.03
2022-08-24T16:29:37.345Z,100975.88
2022-08-24T16:32:53.467Z,100975.31
2022-08-24T16:35:22.343Z,100976.41
2022-08-24T16:37:49.611Z,100972.41
2022-08-24T16:40:16.393Z,100970.06
2022-08-24T16:42:43.123Z,100970.56
2022-08-24T16:45:12.364Z,100973.69
2022-08-24T16:47:38.876Z,100975.78
2022-08-24T16:50:06.474Z,100970.22
2022-08-24T16:52:33.120Z,100976.53
2022-08-24T16:55:01.450Z,100976.53
2022-08-24T16:57:31.176Z,100977.50
2022-08-24T16:59:58.143Z,100976.72
2022-08-24T17:02:27.661Z,100974.34
2022-08-24T17:04:54.825Z,100973.75
2022-08-24T17:07:26.243Z,100977.66
2022-08-24T17:09:53.728Z,100971.59
2022-08-24T17:12:21.016Z,100971.81
2022-08-24T17:14:47.960Z,100969.94
2022-08-24T17:17:23.425Z,100975.66
2022-08-24T17:19:53.423Z,100968.00
2022-08-24T17:22:21.619Z,100970.31
2022-08-24T17:24:48.650Z,100971.84
2022-08-24T17:27:15.968Z,100974.66
2022-08-24T17:29:44.399Z,100980.66
2022-08-24T17:32:11.928Z,100978.47
2022-08-24T17:34:39.103Z,100987.88
2022-08-24T17:37:07.409Z,100982.81
2022-08-24T17:39:34.308Z,100983.53
2022-08-24T17:42:01.522Z,100992.91
2022-08-24T17:44:32.037Z,100991.53
2022-08-24T17:47:01.051Z,100995.94
2022-08-24T17:49:27.980Z,100998.22
2022-08-24T17:51:55.235Z,100992.84
2022-08-24T17:54:22.707Z,101003.00
2022-08-24T17:56:50.945Z,100994.75
2022-08-24T17:59:25.388Z,101008.31
2022-08-24T18:01:56.527Z,101002.16
2022-08-24T18:04:28.263Z,101005.47
2022-08-24T18:06:59.323Z,101000.88
2022-08-24T18:09:35.267Z,101007.56
2022-08-24T18:12:05.530Z,101008.22
2022-08-24T18:14:34.433Z,101012.13
2022-08-24T18:17:13.973Z,101013.28
2022-08-24T18:19:41.089Z,101008.72
2022-08-24T18:22:07.635Z,101013.78
2022-08-24T18:24:34.361Z,101014.22
2022-08-24T18:27:11.268Z,101023.13
2022-08-24T18:29:40.638Z,101021.69
2022-08-24T18:32:09.604Z,101024.97
2022-08-24T18:34:36.172Z,101029.00
2022-08-24T18:37:02.751Z,101019.16
2022-08-24T18:39:29.287Z,101029.47
2022-08-24T18:42:00.032Z,101034.00
2022-08-24T18:44:31.471Z,101033.09
2022-08-24T18:46:58.657Z,101031.84
2022-08-24T18:49:25.633Z,101030.13
2022-08-24T18:51:52.271Z,101036.25
2022-08-24T18:54:22.344Z,101039.97
2022-08-24T18:56:49.687Z,101047.69
2022-08-24T18:59:18.618Z,101039.88
2022-08-24T19:02:07.329Z,101041.97
2022-08-24T19:04:47.448Z,101043.00
2022-08-24T19:07:14.426Z,101042.53
2022-08-24T19:09:40.992Z,101050.41
2022-08-24T19:12:08.610Z,101051.72
2022-08-24T19:14:36.548Z,101051.69
2022-08-24T19:17:04.046Z,101051.25
2022-08-24T19:19:30.583Z,101048.38
2022-08-24T19:21:57.139Z,101052.06
2022-08-24T19:24:27.253Z,101052.88
2022-08-24T19:26:54.584Z,101050.63
2022-08-24T19:29:44.996Z,101053.84
2022-08-24T19:32:21.774Z,101055.72
2022-08-24T19:34:49.425Z,101056.34
2022-08-24T19:37:16.143Z,101054.91
2022-08-24T19:39:42.639Z,101054.28
2022-08-24T19:42:10.979Z,101058.59
2022-08-24T19:44:56.127Z,101053.81
2022-08-24T19:47:23.877Z,101061.63
2022-08-24T19:49:50.440Z,101055.38
2022-08-24T19:52:17.051Z,101055.34
2022-08-24T19:54:45.699Z,101060.63
2022-08-24T19:57:24.360Z,101063.13
2022-08-24T19:59:52.406Z,101067.88
2022-08-24T20:02:19.287Z,101061.97
2022-08-24T20:04:45.836Z,101064.34
2022-08-24T20:07:16.879Z,101070.84
2022-08-24T20:09:44.355Z,101067.47
2022-08-24T20:12:11.605Z,101056.59
2022-08-24T20:14:38.135Z,101056.88
2022-08-24T20:17:05.476Z,101062.06
2022-08-24T20:19:37.539Z,101069.72
2022-08-24T20:22:13.220Z,101065.81
2022-08-24T20:24:40.344Z,101067.72
2022-08-24T20:27:06.865Z,101074.06
2022-08-24T20:29:33.378Z,101073.06
2022-08-24T20:32:02.523Z,101074.94
2022-08-24T20:34:29.633Z,101079.22
2022-08-24T20:36:57.728Z,101074.50
2022-08-24T20:39:27.033Z,101082.13
2022-08-24T20:41:53.756Z,101079.84
2022-08-24T20:44:21.127Z,101075.50
2022-08-24T20:46:50.040Z,101074.50
2022-08-24T20:49:20.906Z,101075.56
2022-08-24T20:51:47.489Z,101076.94
2022-08-24T20:54:14.775Z,101084.09
2022-08-24T20:56:43.594Z,101082.75
2022-08-24T20:59:12.568Z,101078.41
2022-08-24T21:01:42.882Z,101079.31
2022-08-24T21:04:09.943Z,101076.53
2022-08-24T21:06:36.961Z,101077.94
2022-08-24T21:09:05.473Z,101078.97
2022-08-24T21:11:32.995Z,101079.56
2022-08-24T21:14:00.351Z,101079.81
2022-08-24T21:16:27.432Z,101076.72
2022-08-24T21:18:53.959Z,101085.88
2022-08-24T21:21:20.537Z,101086.94
2022-08-24T21:23:47.037Z,101085.91
2022-08-24T21:26:18.865Z,101093.03
2022-08-24T21:28:45.394Z,101088.97
2022-08-24T21:31:11.979Z,101089.91
2022-08-24T21:33:57.112Z,101095.28
2022-08-24T21:36:25.446Z,101103.53
2022-08-24T21:38:54.526Z,101103.63
2022-08-24T21:41:21.798Z,101089.78
2022-08-24T21:43:48.349Z,101093.09
2022-08-24T21:46:15.132Z,101102.94
2022-08-24T21:48:41.714Z,101100.09
2022-08-24T21:51:08.647Z,101098.47
2022-08-24T21:53:35.216Z,101103.75
2022-08-24T21:56:02.442Z,101101.34
2022-08-24T21:58:29.537Z,101109.94
2022-08-24T22:00:58.985Z,101111.19
2022-08-24T22:03:26.183Z,101108.34
2022-08-24T22:05:58.382Z,101111.66
2022-08-24T22:08:27.832Z,101111.31
2022-08-24T22:10:55.350Z,101105.69
2022-08-24T22:13:21.858Z,101106.16
2022-08-24T22:15:48.428Z,101099.28
2022-08-24T22:18:15.249Z,101100.19
2022-08-24T22:20:41.836Z,101103.16
2022-08-24T22:23:08.459Z,101097.53
2022-08-24T22:25:35.096Z,101102.59
2022-08-24T22:28:01.706Z,101096.19
2022-08-24T22:30:28.198Z,101100.41
2022-08-24T22:32:54.737Z,101099.69
2022-08-24T22:35:21.307Z,101096.56
2022-08-24T22:37:47.884Z,101092.22
2022-08-24T22:40:14.907Z,101097.69
2022-08-24T22:42:45.505Z,101087.63
2022-08-24T22:45:12.023Z,101088.16
2022-08-24T22:47:38.584Z,101095.25
2022-08-24T22:50:06.330Z,101088.81
2022-08-24T22:52:33.095Z,101094.63
2022-08-24T22:54:59.677Z,101094.38
2022-08-24T22:57:26.876Z,101087.97
2022-08-24T22:59:55.675Z,101094.56
2022-08-24T23:02:22.422Z,101097.56
2022-08-24T23:04:51.582Z,101099.34
2022-08-24T23:07:18.783Z,101098.97
2022-08-24T23:09:46.313Z,101102.38
2022-08-24T23:12:19.473Z,101097.19
2022-08-24T23:14:46.438Z,101099.25
2022-08-24T23:17:13.391Z,101097.75
2022-08-24T23:19:58.451Z,101098.63
2022-08-24T23:22:25.769Z,101092.59
2022-08-24T23:24:53.189Z,101086.50
2022-08-24T23:27:20.514Z,101101.25
2022-08-24T23:29:49.347Z,101102.94
2022-08-24T23:32:18.299Z,101098.13
2022-08-24T23:34:47.361Z,101093.66
2022-08-24T23:37:15.615Z,101096.16
2022-08-24T23:39:42.556Z,101088.03
2022-08-24T23:42:09.105Z,101091.78
2022-08-24T23:44:35.795Z,101089.84
2022-08-24T23:47:02.405Z,101085.00
2022-08-24T23:49:29.888Z,101081.44
2022-08-24T23:51:56.660Z,101083.97
2022-08-24T23:54:23.976Z,101087.28
2022-08-24T23:56:51.574Z,101077.19
2022-08-24T23:59:24.772Z,101085.00
